sensor_id;sensor_type;location;lat;lon;timestamp;pressure;altitude;pressure_sealevel;temperature;humidity
59272;BME280;45043;51.068;7.026;2022-10-29T00:02:46;101005.44;;;15.09;56.74
59272;BME280;45043;51.068;7.026;2022-10-29T00:06:02;100994.75;;;15.09;56.56
59272;BME280;45043;51.068;7.026;2022-10-29T00:09:03;101001.72;;;15.10;56.47
59272;BME280;45043;51.068;7.026;2022-10-29T00:12:03;101001.09;;;15.14;56.63
59272;BME280;45043;51.068;7.026;2022-10-29T00:15:04;101005.81;;;15.19;56.46
59272;BME280;45043;51.068;7.026;2022-10-29T00:18:05;101012.38;;;15.23;56.06
59272;BME280;45043;51.068;7.026;2022-10-29T00:21:09;100998.72;;;15.31;55.71
59272;BME280;45043;51.068;7.026;2022-10-29T00:24:09;100993.59;;;15.29;56.02
59272;BME280;45043;51.068;7.026;2022-10-29T00:27:10;101010.22;;;15.38;55.60
59272;BME280;45043;51.068;7.026;2022-10-29T00:30:11;101007.94;;;15.42;55.60
59272;BME280;45043;51.068;7.026;2022-10-29T00:33:12;100995.78;;;15.39;55.52
59272;BME280;45043;51.068;7.026;2022-10-29T00:36:15;101012.25;;;15.49;55.60
59272;BME280;45043;51.068;7.026;2022-10-29T00:39:16;101008.97;;;15.41;55.35
59272;BME280;45043;51.068;7.026;2022-10-29T00:42:17;100998.94;;;15.36;55.56
59272;BME280;45043;51.068;7.026;2022-10-29T00:45:19;101003.28;;;15.30;55.86
59272;BME280;45043;51.068;7.026;2022-10-29T00:48:21;101012.72;;;15.33;55.69
59272;BME280;45043;51.068;7.026;2022-10-29T00:51:24;101011.91;;;15.33;55.54
59272;BME280;45043;51.068;7.026;2022-10-29T00:54:25;101023.84;;;15.37;55.56
59272;BME280;45043;51.068;7.026;2022-10-29T00:57:33;101015.53;;;15.45;55.35
59272;BME280;45043;51.068;7.026;2022-10-29T01:00:35;101005.66;;;15.45;55.37
59272;BME280;45043;51.068;7.026;2022-10-29T01:03:35;100999.88;;;15.48;55.39
59272;BME280;45043;51.068;7.026;2022-10-29T01:06:37;101001.09;;;15.52;55.06
59272;BME280;45043;51.068;7.026;2022-10-29T01:09:38;100995.13;;;15.50;54.88
59272;BME280;45043;51.068;7.026;2022-10-29T01:12:55;100990.41;;;15.46;55.32
59272;BME280;45043;51.068;7.026;2022-10-29T01:16:04;100990.25;;;15.41;55.07
59272;BME280;45043;51.068;7.026;2022-10-29T01:19:14;100985.97;;;15.33;55.16
59272;BME280;45043;51.068;7.026;2022-10-29T01:22:38;100989.22;;;15.35;55.07
59272;BME280;45043;51.068;7.026;2022-10-29T01:32:30;100985.94;;;15.40;55.10
59272;BME280;45043;51.068;7.026;2022-10-29T01:35:44;100983.25;;;15.40;55.15
59272;BME280;45043;51.068;7.026;2022-10-29T01:39:04;100995.59;;;15.41;55.31
59272;BME280;45043;51.068;7.026;2022-10-29T01:42:35;100990.91;;;15.36;55.21
59272;BME280;45043;51.068;7.026;2022-10-29T01:48:47;100988.59;;;15.40;54.68
59272;BME280;45043;51.068;7.026;2022-10-29T01:51:51;100977.91;;;15.40;54.90
59272;BME280;45043;51.068;7.026;2022-10-29T01:54:53;100978.72;;;15.40;55.10
59272;BME280;45043;51.068;7.026;2022-10-29T01:57:54;100969.25;;;15.38;55.47
59272;BME280;45043;51.068;7.026;2022-10-29T02:10:31;100950.31;;;15.01;56.36
59272;BME280;45043;51.068;7.026;2022-10-29T02:13:38;100957.94;;;14.97;56.25
59272;BME280;45043;51.068;7.026;2022-10-29T02:16:41;100953.28;;;14.86;56.65
59272;BME280;45043;51.068;7.026;2022-10-29T02:19:41;100947.94;;;14.86;56.68
59272;BME280;45043;51.068;7.026;2022-10-29T02:22:42;100939.91;;;14.86;56.74
59272;BME280;45043;51.068;7.026;2022-10-29T02:25:42;100933.72;;;14.86;56.87
59272;BME280;45043;51.068;7.026;2022-10-29T02:28:43;100937.22;;;14.86;56.93
59272;BME280;45043;51.068;7.026;2022-10-29T02:31:44;100933.50;;;14.87;56.81
59272;BME280;45043;51.068;7.026;2022-10-29T02:34:44;100930.50;;;14.77;56.78
59272;BME280;45043;51.068;7.026;2022-10-29T02:37:45;100934.81;;;14.78;57.33
59272;BME280;45043;51.068;7.026;2022-10-29T02:40:45;100929.88;;;14.75;57.14
59272;BME280;45043;51.068;7.026;2022-10-29T02:43:46;100922.50;;;14.70;57.19
59272;BME280;45043;51.068;7.026;2022-10-29T02:46:46;100933.63;;;14.67;57.09
59272;BME280;45043;51.068;7.026;2022-10-29T02:49:47;100933.22;;;14.57;57.54
59272;BME280;45043;51.068;7.026;2022-10-29T02:52:47;100938.16;;;14.53;57.55
59272;BME280;45043;51.068;7.026;2022-10-29T02:55:48;100937.34;;;14.46;57.79
59272;BME280;45043;51.068;7.026;2022-10-29T02:58:48;100942.69;;;14.46;57.93
59272;BME280;45043;51.068;7.026;2022-10-29T03:01:48;100940.88;;;14.40;57.87
59272;BME280;45043;51.068;7.026;2022-10-29T03:04:49;100948.69;;;14.42;58.02
59272;BME280;45043;51.068;7.026;2022-10-29T03:07:49;100934.50;;;14.41;57.99
59272;BME280;45043;51.068;7.026;2022-10-29T03:10:50;100933.28;;;14.37;58.16
59272;BME280;45043;51.068;7.026;2022-10-29T03:13:50;100922.03;;;14.22;58.42
59272;BME280;45043;51.068;7.026;2022-10-29T03:16:51;100929.66;;;14.12;58.79
59272;BME280;45043;51.068;7.026;2022-10-29T03:19:51;100914.03;;;14.08;58.49
59272;BME280;45043;51.068;7.026;2022-10-29T03:22:52;100924.53;;;14.03;58.95
59272;BME280;45043;51.068;7.026;2022-10-29T03:25:54;100923.50;;;13.98;59.15
59272;BME280;45043;51.068;7.026;2022-10-29T03:28:55;100923.50;;;13.98;59.28
59272;BME280;45043;51.068;7.026;2022-10-29T03:31:55;100913.84;;;13.97;59.15
59272;BME280;45043;51.068;7.026;2022-10-29T03:34:56;100900.91;;;14.00;59.06
59272;BME280;45043;51.068;7.026;2022-10-29T03:37:56;100895.16;;;14.03;59.14
59272;BME280;45043;51.068;7.026;2022-10-29T03:40:57;100904.78;;;14.04;58.66
59272;BME280;45043;51.068;7.026;2022-10-29T03:43:57;100900.28;;;13.98;58.88
59272;BME280;45043;51.068;7.026;2022-10-29T03:46:58;100894.34;;;13.96;59.40
59272;BME280;45043;51.068;7.026;2022-10-29T03:49:58;100889.00;;;13.90;59.24
59272;BME280;45043;51.068;7.026;2022-10-29T03:52:59;100880.00;;;13.84;59.17
59272;BME280;45043;51.068;7.026;2022-10-29T03:56:00;100897.22;;;13.88;59.24
59272;BME280;45043;51.068;7.026;2022-10-29T03:59:00;100885.31;;;13.84;59.46
59272;BME280;45043;51.068;7.026;2022-10-29T04:02:01;100887.78;;;13.85;59.42
59272;BME280;45043;51.068;7.026;2022-10-29T04:05:01;100893.94;;;13.86;59.07
59272;BME280;45043;51.068;7.026;2022-10-29T04:08:03;100898.69;;;13.84;59.28
59272;BME280;45043;51.068;7.026;2022-10-29T04:11:04;100901.53;;;13.82;59.16
59272;BME280;45043;51.068;7.026;2022-10-29T04:14:05;100895.16;;;13.83;59.36
59272;BME280;45043;51.068;7.026;2022-10-29T04:17:05;100894.16;;;13.84;59.30
59272;BME280;45043;51.068;7.026;2022-10-29T04:20:06;100903.41;;;13.82;59.21
59272;BME280;45043;51.068;7.026;2022-10-29T04:23:07;100900.09;;;13.80;59.32
59272;BME280;45043;51.068;7.026;2022-10-29T04:26:07;100878.34;;;13.76;59.27
59272;BME280;45043;51.068;7.026;2022-10-29T04:29:08;100870.94;;;13.72;59.44
59272;BME280;45043;51.068;7.026;2022-10-29T04:32:09;100884.50;;;13.63;59.80
59272;BME280;45043;51.068;7.026;2022-10-29T04:35:09;100878.34;;;13.63;59.53
59272;BME280;45043;51.068;7.026;2022-10-29T04:38:11;100880.38;;;13.68;59.78
59272;BME280;45043;51.068;7.026;2022-10-29T04:41:11;100876.47;;;13.63;59.71
59272;BME280;45043;51.068;7.026;2022-10-29T04:44:12;100861.09;;;13.59;60.18
59272;BME280;45043;51.068;7.026;2022-10-29T04:47:12;100857.38;;;13.67;60.38
59272;BME280;45043;51.068;7.026;2022-10-29T04:50:13;100839.13;;;13.77;60.35
59272;BME280;45043;51.068;7.026;2022-10-29T04:53:14;100813.41;;;13.89;59.84
59272;BME280;45043;51.068;7.026;2022-10-29T04:56:15;100808.25;;;13.94;59.80
59272;BME280;45043;51.068;7.026;2022-10-29T04:59:16;100831.69;;;13.99;59.18
59272;BME280;45043;51.068;7.026;2022-10-29T05:02:16;100843.78;;;14.01;59.51
59272;BME280;45043;51.068;7.026;2022-10-29T05:05:18;100852.97;;;14.12;58.67
59272;BME280;45043;51.068;7.026;2022-10-29T05:08:19;100847.25;;;14.02;58.78
59272;BME280;45043;51.068;7.026;2022-10-29T05:11:20;100833.34;;;13.86;59.48
59272;BME280;45043;51.068;7.026;2022-10-29T05:14:21;100828.63;;;13.82;59.65
59272;BME280;45043;51.068;7.026;2022-10-29T05:17:22;100817.94;;;13.82;59.55
59272;BME280;45043;51.068;7.026;2022-10-29T05:20:24;100822.47;;;13.88;59.63
59272;BME280;45043;51.068;7.026;2022-10-29T05:23:24;100815.84;;;13.91;59.61
59272;BME280;45043;51.068;7.026;2022-10-29T05:26:25;100825.31;;;13.93;59.29
59272;BME280;45043;51.068;7.026;2022-10-29T05:29:25;100825.72;;;13.90;59.46
59272;BME280;45043;51.068;7.026;2022-10-29T05:32:29;100835.81;;;13.88;59.40
59272;BME280;45043;51.068;7.026;2022-10-29T05:35:30;100823.69;;;13.92;59.48
59272;BME280;45043;51.068;7.026;2022-10-29T05:38:30;100833.53;;;13.92;59.07
59272;BME280;45043;51.068;7.026;2022-10-29T05:41:31;100837.84;;;13.93;59.08
59272;BME280;45043;51.068;7.026;2022-10-29T05:44:32;100845.88;;;13.86;59.27
59272;BME280;45043;51.068;7.026;2022-10-29T05:47:32;100844.00;;;13.93;58.97
59272;BME280;45043;51.068;7.026;2022-10-29T05:50:33;100849.53;;;13.98;58.91
59272;BME280;45043;51.068;7.026;2022-10-29T05:53:34;100844.81;;;14.00;59.05
59272;BME280;45043;51.068;7.026;2022-10-29T05:56:35;100834.75;;;14.02;58.50
59272;BME280;45043;51.068;7.026;2022-10-29T05:59:35;100840.44;;;14.13;58.66
59272;BME280;45043;51.068;7.026;2022-10-29T06:02:36;100836.53;;;14.15;58.15
59272;BME280;45043;51.068;7.026;2022-10-29T06:05:36;100839.22;;;14.08;58.51
59272;BME280;45043;51.068;7.026;2022-10-29T06:08:37;100840.50;;;14.06;58.54
59272;BME280;45043;51.068;7.026;2022-10-29T06:11:37;100842.13;;;14.07;59.11
59272;BME280;45043;51.068;7.026;2022-10-29T06:14:38;100826.91;;;14.07;58.78
59272;BME280;45043;51.068;7.026;2022-10-29T06:17:42;100820.34;;;14.10;58.57
59272;BME280;45043;51.068;7.026;2022-10-29T06:20:42;100813.78;;;13.99;58.64
59272;BME280;45043;51.068;7.026;2022-10-29T06:23:43;100827.31;;;14.04;58.63
59272;BME280;45043;51.068;7.026;2022-10-29T06:26:43;100817.06;;;14.01;58.65
59272;BME280;45043;51.068;7.026;2022-10-29T06:29:44;100821.56;;;14.07;58.20
59272;BME280;45043;51.068;7.026;2022-10-29T06:32:46;100828.75;;;14.14;58.76
59272;BME280;45043;51.068;7.026;2022-10-29T06:35:46;100824.19;;;14.21;58.59
59272;BME280;45043;51.068;7.026;2022-10-29T06:38:47;100817.56;;;14.30;57.71
59272;BME280;45043;51.068;7.026;2022-10-29T06:41:48;100803.41;;;14.23;58.03
59272;BME280;45043;51.068;7.026;2022-10-29T06:44:52;100805.84;;;14.24;58.07
59272;BME280;45043;51.068;7.026;2022-10-29T06:47:53;100799.53;;;14.19;58.28
59272;BME280;45043;51.068;7.026;2022-10-29T06:50:54;100802.38;;;14.24;58.23
59272;BME280;45043;51.068;7.026;2022-10-29T06:53:57;100813.66;;;14.32;57.92
59272;BME280;45043;51.068;7.026;2022-10-29T06:56:58;100828.88;;;14.32;57.85
59272;BME280;45043;51.068;7.026;2022-10-29T06:59:59;100839.56;;;14.32;57.75
59272;BME280;45043;51.068;7.026;2022-10-29T07:03:00;100846.13;;;14.36;58.13
59272;BME280;45043;51.068;7.026;2022-10-29T07:06:00;100846.28;;;14.41;57.67
59272;BME280;45043;51.068;7.026;2022-10-29T07:09:01;100846.47;;;14.46;57.54
59272;BME280;45043;51.068;7.026;2022-10-29T07:12:02;100851.25;;;14.31;57.57
59272;BME280;45043;51.068;7.026;2022-10-29T07:15:03;100839.38;;;14.20;57.99
59272;BME280;45043;51.068;7.026;2022-10-29T07:18:06;100834.03;;;14.27;58.11
59272;BME280;45043;51.068;7.026;2022-10-29T07:21:07;100827.22;;;14.31;57.87
59272;BME280;45043;51.068;7.026;2022-10-29T07:24:09;100839.28;;;14.47;57.49
59272;BME280;45043;51.068;7.026;2022-10-29T07:27:09;100839.03;;;14.55;57.13
59272;BME280;45043;51.068;7.026;2022-10-29T07:30:10;100842.53;;;14.55;57.34
59272;BME280;45043;51.068;7.026;2022-10-29T07:33:11;100839.47;;;14.52;57.09
59272;BME280;45043;51.068;7.026;2022-10-29T07:36:12;100853.03;;;14.50;57.59
59272;BME280;45043;51.068;7.026;2022-10-29T07:39:12;100869.94;;;14.44;57.40
59272;BME280;45043;51.068;7.026;2022-10-29T07:42:12;100869.56;;;14.34;57.64
59272;BME280;45043;51.068;7.026;2022-10-29T07:45:13;100870.41;;;14.28;57.89
59272;BME280;45043;51.068;7.026;2022-10-29T07:48:14;100864.88;;;14.23;58.01
59272;BME280;45043;51.068;7.026;2022-10-29T07:51:14;100871.25;;;14.22;57.96
59272;BME280;45043;51.068;7.026;2022-10-29T07:54:15;100854.00;;;14.18;58.29
59272;BME280;45043;51.068;7.026;2022-10-29T07:57:15;100854.19;;;14.16;58.46
59272;BME280;45043;51.068;7.026;2022-10-29T08:00:16;100856.06;;;14.16;58.21
59272;BME280;45043;51.068;7.026;2022-10-29T08:03:16;100853.38;;;14.16;58.65
59272;BME280;45043;51.068;7.026;2022-10-29T08:06:17;100855.22;;;14.22;58.67
59272;BME280;45043;51.068;7.026;2022-10-29T08:09:17;100858.69;;;14.29;58.18
59272;BME280;45043;51.068;7.026;2022-10-29T08:12:18;100859.28;;;14.31;58.45
59272;BME280;45043;51.068;7.026;2022-10-29T08:15:19;100855.13;;;14.42;58.33
59272;BME280;45043;51.068;7.026;2022-10-29T08:18:20;100851.59;;;14.54;58.01
59272;BME280;45043;51.068;7.026;2022-10-29T08:21:21;100843.50;;;14.68;58.01
59272;BME280;45043;51.068;7.026;2022-10-29T08:24:21;100844.28;;;14.75;57.32
59272;BME280;45043;51.068;7.026;2022-10-29T08:27:22;100854.41;;;14.73;57.09
59272;BME280;45043;51.068;7.026;2022-10-29T08:30:22;100835.03;;;14.77;56.92
59272;BME280;45043;51.068;7.026;2022-10-29T08:33:23;100831.69;;;14.82;57.16
59272;BME280;45043;51.068;7.026;2022-10-29T08:36:24;100838.81;;;14.95;56.65
59272;BME280;45043;51.068;7.026;2022-10-29T08:39:25;100816.78;;;14.99;56.45
59272;BME280;45043;51.068;7.026;2022-10-29T08:45:47;100834.47;;;15.25;56.27
59272;BME280;45043;51.068;7.026;2022-10-29T08:48:55;100831.91;;;15.37;56.02
59272;BME280;45043;51.068;7.026;2022-10-29T08:52:10;100841.06;;;15.48;55.49
59272;BME280;45043;51.068;7.026;2022-10-29T08:55:20;100834.28;;;15.45;56.10
59272;BME280;45043;51.068;7.026;2022-10-29T08:58:29;100826.94;;;15.66;55.12
59272;BME280;45043;51.068;7.026;2022-10-29T09:01:32;100826.09;;;15.65;55.17
59272;BME280;45043;51.068;7.026;2022-10-29T09:04:34;100836.44;;;15.80;54.86
59272;BME280;45043;51.068;7.026;2022-10-29T09:11:52;100825.91;;;16.03;53.88
59272;BME280;45043;51.068;7.026;2022-10-29T09:21:31;100827.09;;;16.08;53.85
59272;BME280;45043;51.068;7.026;2022-10-29T09:34:37;100831.94;;;16.17;53.99
59272;BME280;45043;51.068;7.026;2022-10-29T09:38:00;100829.13;;;16.24;53.50
59272;BME280;45043;51.068;7.026;2022-10-29T09:41:05;100827.38;;;16.36;53.49
59272;BME280;45043;51.068;7.026;2022-10-29T09:44:24;100823.69;;;16.49;53.16
59272;BME280;45043;51.068;7.026;2022-10-29T09:53:33;100811.78;;;16.75;52.57
59272;BME280;45043;51.068;7.026;2022-10-29T09:56:33;100803.28;;;16.78;52.09
59272;BME280;45043;51.068;7.026;2022-10-29T09:59:41;100811.78;;;16.87;51.83
59272;BME280;45043;51.068;7.026;2022-10-29T10:06:07;100800.38;;;16.91;51.55
59272;BME280;45043;51.068;7.026;2022-10-29T10:09:09;100813.56;;;16.93;51.30
59272;BME280;45043;51.068;7.026;2022-10-29T10:12:10;100808.31;;;16.98;51.55
59272;BME280;45043;51.068;7.026;2022-10-29T10:18:23;100810.72;;;17.18;50.24
59272;BME280;45043;51.068;7.026;2022-10-29T10:21:31;100807.88;;;17.13;50.45
59272;BME280;45043;51.068;7.026;2022-10-29T10:24:34;100809.06;;;17.17;50.52
59272;BME280;45043;51.068;7.026;2022-10-29T10:27:35;100811.28;;;17.20;50.96
59272;BME280;45043;51.068;7.026;2022-10-29T10:30:36;100807.75;;;17.08;51.03
59272;BME280;45043;51.068;7.026;2022-10-29T10:33:50;100813.16;;;17.19;50.79
59272;BME280;45043;51.068;7.026;2022-10-29T10:40:00;100804.53;;;17.17;50.64
59272;BME280;45043;51.068;7.026;2022-10-29T10:43:03;100795.50;;;17.12;50.34
59272;BME280;45043;51.068;7.026;2022-10-29T10:46:09;100789.72;;;17.15;50.61
59272;BME280;45043;51.068;7.026;2022-10-29T10:49:33;100789.72;;;17.15;50.64
59272;BME280;45043;51.068;7.026;2022-10-29T10:52:34;100773.13;;;17.18;50.48
59272;BME280;45043;51.068;7.026;2022-10-29T10:55:38;100786.31;;;17.19;50.77
59272;BME280;45043;51.068;7.026;2022-10-29T10:58:59;100778.03;;;17.21;51.05
59272;BME280;45043;51.068;7.026;2022-10-29T11:02:04;100773.13;;;17.18;50.99
59272;BME280;45043;51.068;7.026;2022-10-29T11:05:34;100779.78;;;17.15;50.91
59272;BME280;45043;51.068;7.026;2022-10-29T11:12:33;100767.53;;;17.19;50.78
59272;BME280;45043;51.068;7.026;2022-10-29T11:15:53;100765.09;;;17.30;50.26
59272;BME280;45043;51.068;7.026;2022-10-29T11:19:04;100767.06;;;17.34;50.25
59272;BME280;45043;51.068;7.026;2022-10-29T11:22:25;100765.31;;;17.40;50.34
59272;BME280;45043;51.068;7.026;2022-10-29T11:25:50;100774.75;;;17.42;49.64
59272;BME280;45043;51.068;7.026;2022-10-29T11:29:03;100771.13;;;17.49;49.51
59272;BME280;45043;51.068;7.026;2022-10-29T11:36:00;100757.00;;;17.53;49.79
59272;BME280;45043;51.068;7.026;2022-10-29T11:39:15;100760.72;;;17.64;49.39
59272;BME280;45043;51.068;7.026;2022-10-29T11:42:17;100754.97;;;17.72;49.00
59272;BME280;45043;51.068;7.026;2022-10-29T11:45:48;100746.09;;;17.71;48.71
59272;BME280;45043;51.068;7.026;2022-10-29T11:49:27;100746.91;;;17.72;49.38
59272;BME280;45043;51.068;7.026;2022-10-29T11:56:01;100753.31;;;17.83;48.98
59272;BME280;45043;51.068;7.026;2022-10-29T12:06:17;100741.09;;;18.32;47.53
59272;BME280;45043;51.068;7.026;2022-10-29T12:15:50;100735.97;;;18.76;47.05
59272;BME280;45043;51.068;7.026;2022-10-29T12:29:18;100714.81;;;19.02;46.03
59272;BME280;45043;51.068;7.026;2022-10-29T12:32:37;100723.06;;;19.12;45.88
59272;BME280;45043;51.068;7.026;2022-10-29T12:38:54;100708.72;;;19.45;44.79
59272;BME280;45043;51.068;7.026;2022-10-29T12:42:00;100711.34;;;19.62;44.44
59272;BME280;45043;51.068;7.026;2022-10-29T12:45:21;100702.75;;;19.87;44.19
59272;BME280;45043;51.068;7.026;2022-10-29T12:48:37;100698.00;;;20.21;44.02
59272;BME280;45043;51.068;7.026;2022-10-29T12:51:47;100695.59;;;20.52;43.07
59272;BME280;45043;51.068;7.026;2022-10-29T12:54:51;100698.63;;;20.66;42.29
59272;BME280;45043;51.068;7.026;2022-10-29T12:57:52;100697.72;;;20.82;41.99
59272;BME280;45043;51.068;7.026;2022-10-29T13:00:52;100686.22;;;21.02;41.59
59272;BME280;45043;51.068;7.026;2022-10-29T13:13:33;100687.91;;;20.71;41.60
59272;BME280;45043;51.068;7.026;2022-10-29T13:16:35;100678.41;;;20.63;41.63
59272;BME280;45043;51.068;7.026;2022-10-29T13:19:48;100674.44;;;20.44;41.63
59272;BME280;45043;51.068;7.026;2022-10-29T13:22:57;100665.22;;;20.34;42.18
59272;BME280;45043;51.068;7.026;2022-10-29T13:25:58;100659.41;;;20.21;42.71
59272;BME280;45043;51.068;7.026;2022-10-29T13:28:59;100660.19;;;20.16;43.04
59272;BME280;45043;51.068;7.026;2022-10-29T13:32:00;100663.06;;;20.09;43.01
59272;BME280;45043;51.068;7.026;2022-10-29T13:35:03;100660.31;;;20.04;43.06
59272;BME280;45043;51.068;7.026;2022-10-29T13:41:21;100653.28;;;19.76;43.54
59272;BME280;45043;51.068;7.026;2022-10-29T13:44:27;100655.69;;;19.73;43.86
59272;BME280;45043;51.068;7.026;2022-10-29T13:47:28;100653.72;;;19.63;43.79
59272;BME280;45043;51.068;7.026;2022-10-29T13:50:30;100647.25;;;19.64;43.98
59272;BME280;45043;51.068;7.026;2022-10-29T13:53:50;100642.03;;;19.57;44.26
59272;BME280;45043;51.068;7.026;2022-10-29T13:57:01;100646.06;;;19.55;44.37
59272;BME280;45043;51.068;7.026;2022-10-29T14:00:05;100640.06;;;19.48;45.08
59272;BME280;45043;51.068;7.026;2022-10-29T14:06:21;100631.34;;;19.41;44.39
59272;BME280;45043;51.068;7.026;2022-10-29T14:10:12;100621.38;;;19.41;44.40
59272;BME280;45043;51.068;7.026;2022-10-29T14:12:56;100624.56;;;19.38;44.48
59272;BME280;45043;51.068;7.026;2022-10-29T14:16:01;100615.41;;;19.39;44.87
59272;BME280;45043;51.068;7.026;2022-10-29T14:19:13;100610.50;;;19.36;44.80
59272;BME280;45043;51.068;7.026;2022-10-29T14:25:32;100623.59;;;19.27;44.83
59272;BME280;45043;51.068;7.026;2022-10-29T14:28:35;100631.16;;;19.25;44.96
59272;BME280;45043;51.068;7.026;2022-10-29T14:31:35;100618.63;;;19.14;45.01
59272;BME280;45043;51.068;7.026;2022-10-29T14:34:36;100622.03;;;19.09;45.04
59272;BME280;45043;51.068;7.026;2022-10-29T14:37:39;100621.22;;;19.09;44.93
59272;BME280;45043;51.068;7.026;2022-10-29T14:40:42;100622.44;;;19.18;45.16
59272;BME280;45043;51.068;7.026;2022-10-29T14:43:53;100623.59;;;19.27;44.89
59272;BME280;45043;51.068;7.026;2022-10-29T14:47:00;100610.19;;;19.32;44.54
59272;BME280;45043;51.068;7.026;2022-10-29T14:50:05;100609.69;;;19.35;44.66
59272;BME280;45043;51.068;7.026;2022-10-29T14:53:32;100614.53;;;19.33;44.39
59272;BME280;45043;51.068;7.026;2022-10-29T14:56:37;100609.06;;;19.28;45.04
59272;BME280;45043;51.068;7.026;2022-10-29T14:59:45;100612.84;;;19.27;44.92
59272;BME280;45043;51.068;7.026;2022-10-29T15:02:47;100618.72;;;19.24;44.91
59272;BME280;45043;51.068;7.026;2022-10-29T15:05:48;100621.03;;;19.15;45.36
59272;BME280;45043;51.068;7.026;2022-10-29T15:09:00;100622.22;;;19.03;45.29
59272;BME280;45043;51.068;7.026;2022-10-29T15:12:14;100625.34;;;18.95;45.29
59272;BME280;45043;51.068;7.026;2022-10-29T15:18:19;100612.00;;;18.66;46.37
59272;BME280;45043;51.068;7.026;2022-10-29T15:21:29;100613.41;;;18.52;46.87
59272;BME280;45043;51.068;7.026;2022-10-29T15:24:31;100608.34;;;18.38;46.82
59272;BME280;45043;51.068;7.026;2022-10-29T15:27:34;100612.00;;;18.32;47.58
59272;BME280;45043;51.068;7.026;2022-10-29T15:30:37;100621.88;;;18.27;47.16
59272;BME280;45043;51.068;7.026;2022-10-29T15:33:37;100617.13;;;18.17;47.33
59272;BME280;45043;51.068;7.026;2022-10-29T15:36:49;100618.13;;;18.11;47.78
59272;BME280;45043;51.068;7.026;2022-10-29T15:40:16;100618.53;;;18.03;47.52
59272;BME280;45043;51.068;7.026;2022-10-29T15:43:28;100612.84;;;17.99;47.66
59272;BME280;45043;51.068;7.026;2022-10-29T15:46:46;100605.00;;;17.98;47.95
59272;BME280;45043;51.068;7.026;2022-10-29T15:49:47;100606.88;;;17.97;47.50
59272;BME280;45043;51.068;7.026;2022-10-29T15:55:51;100598.66;;;17.75;48.21
59272;BME280;45043;51.068;7.026;2022-10-29T15:58:52;100605.22;;;17.67;48.42
59272;BME280;45043;51.068;7.026;2022-10-29T16:01:52;100602.59;;;17.56;48.60
59272;BME280;45043;51.068;7.026;2022-10-29T16:04:53;100592.47;;;17.46;48.56
59272;BME280;45043;51.068;7.026;2022-10-29T16:08:01;100588.88;;;17.40;48.99
59272;BME280;45043;51.068;7.026;2022-10-29T16:11:05;100594.00;;;17.42;49.17
59272;BME280;45043;51.068;7.026;2022-10-29T16:14:09;100603.34;;;17.39;48.61
59272;BME280;45043;51.068;7.026;2022-10-29T16:17:17;100600.31;;;17.36;49.00
59272;BME280;45043;51.068;7.026;2022-10-29T16:20:18;100600.56;;;17.34;48.75
59272;BME280;45043;51.068;7.026;2022-10-29T16:23:19;100595.00;;;17.24;48.47
59272;BME280;45043;51.068;7.026;2022-10-29T16:26:23;100587.75;;;17.25;48.97
59272;BME280;45043;51.068;7.026;2022-10-29T16:29:24;100591.97;;;17.20;48.95
59272;BME280;45043;51.068;7.026;2022-10-29T16:32:24;100586.25;;;17.17;48.93
59272;BME280;45043;51.068;7.026;2022-10-29T16:35:27;100577.00;;;17.13;48.72
59272;BME280;45043;51.068;7.026;2022-10-29T16:38:27;100582.38;;;17.13;48.58
59272;BME280;45043;51.068;7.026;2022-10-29T16:41:29;100579.59;;;17.08;48.71
59272;BME280;45043;51.068;7.026;2022-10-29T16:44:29;100576.69;;;16.97;48.92
59272;BME280;45043;51.068;7.026;2022-10-29T16:47:30;100575.78;;;16.92;48.60
59272;BME280;45043;51.068;7.026;2022-10-29T16:50:31;100580.56;;;16.90;48.95
59272;BME280;45043;51.068;7.026;2022-10-29T16:53:33;100571.94;;;16.88;49.00
59272;BME280;45043;51.068;7.026;2022-10-29T16:56:34;100566.81;;;16.86;48.96
59272;BME280;45043;51.068;7.026;2022-10-29T16:59:34;100569.94;;;16.83;48.55
59272;BME280;45043;51.068;7.026;2022-10-29T17:02:35;100569.94;;;16.83;48.83
59272;BME280;45043;51.068;7.026;2022-10-29T17:05:41;100573.69;;;16.82;48.01
59272;BME280;45043;51.068;7.026;2022-10-29T17:08:42;100572.75;;;16.77;48.13
59272;BME280;45043;51.068;7.026;2022-10-29T17:11:42;100563.91;;;16.76;48.23
59272;BME280;45043;51.068;7.026;2022-10-29T17:14:43;100570.06;;;16.77;48.28
59272;BME280;45043;51.068;7.026;2022-10-29T17:17:43;100569.84;;;16.78;48.17
59272;BME280;45043;51.068;7.026;2022-10-29T17:20:57;100566.59;;;16.76;48.16
59272;BME280;45043;51.068;7.026;2022-10-29T17:23:58;100566.13;;;16.79;48.06
59272;BME280;45043;51.068;7.026;2022-10-29T17:26:58;100576.28;;;16.77;47.96
59272;BME280;45043;51.068;7.026;2022-10-29T17:29:59;100568.22;;;16.77;48.22
59272;BME280;45043;51.068;7.026;2022-10-29T17:32:59;100565.66;;;16.70;48.06
59272;BME280;45043;51.068;7.026;2022-10-29T17:36:11;100578.38;;;16.75;47.73
59272;BME280;45043;51.068;7.026;2022-10-29T17:39:12;100573.72;;;16.70;47.77
59272;BME280;45043;51.068;7.026;2022-10-29T17:42:13;100576.16;;;16.72;47.86
59272;BME280;45043;51.068;7.026;2022-10-29T17:45:13;100576.63;;;16.69;48.04
59272;BME280;45043;51.068;7.026;2022-10-29T17:48:19;100587.34;;;16.69;48.06
59272;BME280;45043;51.068;7.026;2022-10-29T17:51:21;100591.91;;;16.68;47.87
59272;BME280;45043;51.068;7.026;2022-10-29T17:54:21;100594.13;;;16.60;47.85
59272;BME280;45043;51.068;7.026;2022-10-29T17:57:22;100587.72;;;16.61;47.73
59272;BME280;45043;51.068;7.026;2022-10-29T18:00:22;100584.31;;;16.54;47.76
59272;BME280;45043;51.068;7.026;2022-10-29T18:03:25;100581.44;;;16.55;47.67
59272;BME280;45043;51.068;7.026;2022-10-29T18:06:26;100582.69;;;16.53;47.62